OMSJ/SHJ METAR and TAF weather

Enter ICAO airport designator
Station Type Date Time Source
OMSJ METAR 2019/08/25 18:00 UTC NOAA

OMSJ 251800Z 01003KT CAVOK 33/24 Q1003 NOSIG


Station Type Date Time Source
OMSJ Decoded METAR 2019/08/25 18:00 UTC NOAA

Station name not available
Aug 25, 2019 - 02:00 PM EDT / 2019.08.25 1800 UTC
Wind: from the N (010 degrees) at 3 MPH (3 KT):0
Visibility: greater than 7 mile(s):0
Temperature: 91 F (33 C)
Heat index: 101.5 F (38.6 C):1
Dew Point: 75 F (24 C)
Relative Humidity: 59%
Pressure (altimeter): 29.62 in. Hg (1003 hPa)
ob: OMSJ 251800Z 01003KT CAVOK 33/24 Q1003 NOSIG
cycle: 18

Station Type Date Time Source
OMSJ TAF 2019/08/25 18:01 UTC NOAA

TAF OMSJ 251654Z 2518/2700 10005KT CAVOK
BECMG 2607/2609 33014KT
BECMG 2616/2618 07005KT

Example: see airport list